Terminal Aerodrome Forecast
Issued by NWS

Home | Current Version | Previous Version | Text Only | Print | Product List | Glossary On
Versions: 1 2 3 4 5 6 7 8 9 10 11 12 13 14 15 16 17 18 19 20 21 22
266
FTUS43 KIND 181212 AAA
TAFBMG
TAF AMD
KBMG 181212Z 1812/1912 28005KT 6SM BR OVC005
     FM181500 28006KT P6SM OVC008
     FM181700 26006KT P6SM OVC010
     FM182000 23006KT P6SM BKN015
     FM182200 22004KT P6SM SCT025
     FM190000 VRB03KT P6SM SCT035
     FM190600 VRB03KT P6SM BKN050
      AMD LTD TO CLD VIS AND WIND TIL 181400=

USA.gov is the U.S. government's official web portal to all federal, state and local government web resources and services.